createdAt,value
2017-08-07T00:02:22.695Z,16.61
2017-08-07T00:07:18.987Z,16.76
2017-08-07T00:12:15.834Z,16.87
2017-08-07T00:17:11.415Z,16.58
2017-08-07T00:22:08.129Z,16.38
2017-08-07T00:27:03.491Z,16.26
2017-08-07T00:32:01.390Z,16.28
2017-08-07T00:36:58.102Z,16.23
2017-08-07T00:41:53.751Z,16.17
2017-08-07T00:46:49.589Z,16.15
2017-08-07T00:51:46.515Z,15.95
2017-08-07T00:56:42.444Z,16.09
2017-08-07T01:01:40.224Z,16.28
2017-08-07T01:06:35.491Z,16.32
2017-08-07T01:11:31.272Z,16.12
2017-08-07T01:16:27.619Z,15.98
2017-08-07T01:21:24.611Z,15.94
2017-08-07T01:26:20.302Z,15.75
2017-08-07T01:31:16.129Z,15.91
2017-08-07T01:36:12.807Z,15.73
2017-08-07T01:41:09.198Z,15.65
2017-08-07T01:46:05.031Z,15.62
2017-08-07T01:51:01.966Z,15.67
2017-08-07T01:55:57.675Z,15.55
2017-08-07T02:00:53.387Z,15.57
2017-08-07T02:05:49.821Z,15.55
2017-08-07T02:10:47.029Z,15.31
2017-08-07T02:15:42.849Z,15.36
2017-08-07T02:20:38.718Z,15.37
2017-08-07T02:25:34.674Z,15.22
2017-08-07T02:30:32.301Z,15.29
2017-08-07T02:35:28.469Z,15.35
2017-08-07T02:40:23.881Z,15.11
2017-08-07T02:45:20.823Z,15.27
2017-08-07T02:50:16.419Z,15.21
2017-08-07T02:55:12.292Z,15.18
2017-08-07T03:00:08.785Z,15.09
2017-08-07T03:05:04.368Z,15.06
2017-08-07T03:10:00.777Z,15.11
2017-08-07T03:14:57.525Z,14.99
2017-08-07T03:19:53.141Z,14.97
2017-08-07T03:24:49.367Z,14.84
2017-08-07T03:29:45.001Z,14.99
2017-08-07T03:34:40.924Z,14.91
2017-08-07T03:39:37.121Z,14.88
2017-08-07T03:44:32.918Z,14.81
2017-08-07T03:49:29.727Z,14.79
2017-08-07T03:54:26.469Z,14.84
2017-08-07T03:59:23.122Z,14.78
2017-08-07T04:04:19.736Z,14.78
2017-08-07T04:09:15.251Z,14.84
2017-08-07T04:14:10.954Z,14.66
2017-08-07T04:19:06.896Z,14.70
2017-08-07T04:24:03.803Z,14.62
2017-08-07T04:28:59.392Z,14.63
2017-08-07T04:33:55.202Z,14.68
2017-08-07T04:38:51.167Z,14.72
2017-08-07T04:43:47.184Z,14.77
2017-08-07T04:48:43.959Z,14.40
2017-08-07T04:53:40.021Z,14.62
2017-08-07T04:58:36.195Z,14.88
2017-08-07T05:03:33.261Z,15.14
2017-08-07T05:08:28.997Z,15.29
2017-08-07T05:13:25.782Z,15.36
2017-08-07T05:18:22.791Z,15.42
2017-08-07T05:23:18.430Z,15.46
2017-08-07T05:28:14.389Z,15.54
2017-08-07T05:33:10.038Z,15.67
2017-08-07T05:38:05.819Z,15.72
2017-08-07T05:43:02.397Z,15.72
2017-08-07T05:47:58.838Z,15.84
2017-08-07T05:52:54.850Z,15.94
2017-08-07T05:57:51.768Z,16.00
2017-08-07T06:02:48.468Z,16.10
2017-08-07T06:07:44.783Z,16.10
2017-08-07T06:12:40.826Z,16.16
2017-08-07T06:17:36.536Z,16.26
2017-08-07T06:22:32.900Z,16.33
2017-08-07T06:27:28.896Z,16.50
2017-08-07T06:32:24.981Z,16.50
2017-08-07T06:37:21.046Z,16.53
2017-08-07T06:42:17.302Z,16.69
2017-08-07T06:47:14.581Z,16.76
2017-08-07T06:52:11.768Z,17.01
2017-08-07T06:57:07.709Z,17.15
2017-08-07T07:02:04.869Z,17.26
2017-08-07T07:07:00.867Z,17.22
2017-08-07T07:11:58.039Z,17.29
2017-08-07T07:16:53.831Z,17.42
2017-08-07T07:21:49.750Z,17.49
2017-08-07T07:26:46.324Z,17.44
2017-08-07T07:31:41.764Z,17.38
2017-08-07T07:36:39.787Z,17.51
2017-08-07T07:41:35.654Z,17.57
2017-08-07T07:46:32.909Z,17.82
2017-08-07T07:51:30.301Z,18.11
2017-08-07T07:56:28.222Z,18.80
2017-08-07T08:01:25.979Z,19.76
2017-08-07T08:06:25.285Z,20.97
2017-08-07T08:11:22.957Z,21.96
2017-08-07T08:16:21.383Z,23.02
2017-08-07T08:21:18.600Z,23.76
2017-08-07T08:26:16.886Z,24.05
2017-08-07T08:31:14.155Z,24.30
2017-08-07T08:36:10.737Z,24.24
2017-08-07T08:41:08.211Z,25.51
2017-08-07T08:46:04.847Z,24.96
2017-08-07T08:51:01.040Z,25.11
2017-08-07T08:55:57.087Z,25.22
2017-08-07T09:00:51.741Z,24.33
2017-08-07T09:05:45.925Z,23.74
2017-08-07T09:10:40.979Z,22.96
2017-08-07T09:15:35.836Z,22.91
2017-08-07T09:20:31.350Z,23.10
2017-08-07T09:25:29.526Z,23.86
2017-08-07T09:30:28.545Z,24.43
2017-08-07T09:35:27.435Z,24.50
2017-08-07T09:40:24.980Z,24.63
2017-08-07T09:45:21.572Z,24.93
2017-08-07T09:50:19.735Z,25.62
2017-08-07T09:55:17.694Z,25.93
2017-08-07T10:00:16.883Z,25.70
2017-08-07T10:05:11.522Z,25.26
2017-08-07T10:10:07.809Z,25.33
2017-08-07T10:15:05.119Z,26.05
2017-08-07T10:20:01.765Z,26.06
2017-08-07T10:24:59.369Z,25.96
2017-08-07T10:29:54.271Z,25.25
2017-08-07T10:34:50.598Z,25.44
2017-08-07T10:39:46.604Z,25.51
2017-08-07T10:44:43.372Z,25.90
2017-08-07T10:49:40.541Z,25.93
2017-08-07T10:54:38.033Z,26.09
2017-08-07T10:59:34.091Z,26.16
2017-08-07T11:04:31.428Z,26.43
2017-08-07T11:09:27.610Z,26.13
2017-08-07T11:14:25.310Z,26.09
2017-08-07T11:19:21.453Z,26.06
2017-08-07T11:24:18.095Z,26.41
2017-08-07T11:29:13.672Z,25.60
2017-08-07T11:34:09.809Z,25.47
2017-08-07T11:39:03.951Z,25.25
2017-08-07T11:43:56.708Z,25.07
2017-08-07T11:48:56.747Z,25.91
2017-08-07T11:53:55.941Z,26.60
2017-08-07T11:58:53.994Z,27.12
2017-08-07T12:03:48.099Z,26.38
2017-08-07T12:08:42.251Z,25.60
2017-08-07T12:13:37.581Z,25.14
2017-08-07T12:18:35.286Z,25.81
2017-08-07T12:23:28.790Z,25.44
2017-08-07T12:28:22.446Z,25.16
2017-08-07T12:33:21.390Z,25.16
2017-08-07T12:38:21.106Z,25.28
2017-08-07T12:43:17.138Z,25.33
2017-08-07T12:48:15.816Z,25.36
2017-08-07T12:53:09.158Z,25.35
2017-08-07T12:58:03.696Z,25.41
2017-08-07T13:02:59.791Z,25.85
2017-08-07T13:07:56.470Z,25.99
2017-08-07T13:12:53.135Z,25.73
2017-08-07T13:17:49.595Z,25.98
2017-08-07T13:22:46.682Z,26.65
2017-08-07T13:27:43.052Z,26.16
2017-08-07T13:32:40.019Z,26.36
2017-08-07T13:37:34.626Z,25.84
2017-08-07T13:42:30.694Z,25.93
2017-08-07T13:47:27.045Z,25.51
2017-08-07T13:52:22.357Z,24.95
2017-08-07T13:57:18.715Z,24.73
2017-08-07T14:02:16.912Z,24.78
2017-08-07T14:07:11.762Z,25.06
2017-08-07T14:12:07.510Z,25.21
2017-08-07T14:22:08.531Z,24.77
2017-08-07T14:27:06.107Z,24.55
2017-08-07T14:32:03.488Z,25.16
2017-08-07T14:37:00.794Z,25.29
2017-08-07T14:41:57.199Z,25.01
2017-08-07T14:46:54.226Z,24.92
2017-08-07T14:51:50.919Z,24.55
2017-08-07T14:56:47.558Z,24.50
2017-08-07T15:01:48.167Z,24.48
2017-08-07T15:06:43.747Z,24.23
2017-08-07T15:16:39.866Z,24.20
2017-08-07T15:21:35.827Z,24.39
2017-08-07T15:26:32.678Z,24.29
2017-08-07T15:31:29.101Z,24.30
2017-08-07T15:36:25.989Z,24.26
2017-08-07T15:41:21.686Z,24.20
2017-08-07T15:46:18.842Z,24.18
2017-08-07T15:51:15.653Z,24.11
2017-08-07T15:56:11.496Z,24.58
2017-08-07T16:01:13.135Z,24.78
2017-08-07T16:06:08.357Z,24.84
2017-08-07T16:21:10.719Z,24.47
2017-08-07T16:26:07.097Z,24.33
2017-08-07T16:31:04.951Z,24.33
2017-08-07T16:36:04.817Z,24.23
2017-08-07T16:41:02.620Z,24.14
2017-08-07T16:45:59.420Z,24.11
2017-08-07T16:50:55.223Z,24.11
2017-08-07T17:00:58.565Z,24.26
2017-08-07T17:05:55.359Z,24.20
2017-08-07T17:10:53.949Z,24.21
2017-08-07T17:15:50.878Z,24.11
2017-08-07T17:20:49.663Z,24.10
2017-08-07T17:25:48.664Z,24.02
2017-08-07T17:30:45.096Z,24.02
2017-08-07T17:35:42.032Z,23.87
2017-08-07T17:40:39.693Z,23.95
2017-08-07T17:45:36.590Z,23.95
2017-08-07T17:50:39.394Z,23.83
2017-08-07T17:55:35.817Z,23.77
2017-08-07T18:05:33.455Z,23.86
2017-08-07T18:10:36.733Z,23.86
2017-08-07T18:15:32.574Z,23.78
2017-08-07T18:20:30.273Z,23.65
2017-08-07T18:25:26.886Z,23.39
2017-08-07T18:30:24.166Z,23.20
2017-08-07T18:35:19.872Z,23.10
2017-08-07T18:40:15.895Z,23.06
2017-08-07T18:45:12.046Z,22.91
2017-08-07T18:50:10.262Z,22.85
2017-08-07T18:55:06.794Z,22.80
2017-08-07T19:00:09.596Z,22.57
2017-08-07T19:05:06.216Z,22.55
2017-08-07T19:10:02.910Z,22.48
2017-08-07T19:14:59.766Z,22.39
2017-08-07T19:20:00.558Z,22.23
2017-08-07T19:24:58.465Z,22.14
2017-08-07T19:29:54.764Z,22.06
2017-08-07T19:34:50.700Z,21.93
2017-08-07T19:39:46.634Z,21.72
2017-08-07T19:49:43.285Z,21.48
2017-08-07T19:54:40.565Z,21.32
2017-08-07T19:59:36.737Z,21.24
2017-08-07T20:04:34.919Z,21.03
2017-08-07T20:09:32.634Z,20.99
2017-08-07T20:14:29.844Z,20.87
2017-08-07T20:19:35.029Z,20.78
2017-08-07T20:24:31.042Z,20.66
2017-08-07T20:29:28.822Z,20.56
2017-08-07T20:34:26.464Z,20.41
2017-08-07T20:39:22.354Z,20.34
2017-08-07T20:44:26.617Z,20.25
2017-08-07T20:49:25.941Z,20.14
2017-08-07T20:54:22.928Z,20.03
2017-08-07T20:59:19.765Z,19.91
2017-08-07T21:04:15.471Z,19.84
2017-08-07T21:09:12.606Z,19.66
2017-08-07T21:14:08.217Z,19.71
2017-08-07T21:19:05.569Z,19.64
2017-08-07T21:24:03.807Z,19.56
2017-08-07T21:28:59.288Z,19.55
2017-08-07T21:33:55.824Z,19.48
2017-08-07T21:38:53.144Z,19.37
2017-08-07T21:43:49.132Z,19.24
2017-08-07T21:53:46.497Z,19.26
2017-08-07T21:58:43.457Z,19.16
2017-08-07T22:03:40.630Z,18.99
2017-08-07T22:08:40.766Z,19.14
2017-08-07T22:13:35.952Z,19.02
2017-08-07T22:18:34.011Z,18.96
2017-08-07T22:23:33.640Z,18.93
2017-08-07T22:33:36.509Z,18.63
2017-08-07T22:43:35.590Z,18.75
2017-08-07T22:58:40.173Z,18.60
2017-08-07T23:03:39.327Z,18.45
2017-08-07T23:08:39.374Z,18.29
2017-08-07T23:23:45.984Z,18.38
2017-08-07T23:59:09.428Z,17.79
